ftp/pub/mcmurdo/arrivalheights/2008/March/080319.txt

Download

3/19/08
Time         Wind Dir   Wind Spd  Wind Gust     Hum In   Humidity    Temp In       Temp  Raw Barom   Tot Rain
                    °        kts        kts          %          %         °C         °C         mb         mm
0:00              321         20         21         22        100       19.1      -25.2     966.58       0.00
0:20              330         26         29         27        100       18.6      -23.4     965.80       0.00
0:40              330         23         29         28        100       17.9      -23.1     965.94       0.00
1:00              334         30         33         29        100       17.4      -21.9     965.64       0.00
1:20              322         32         36         29        100       17.1      -22.0     965.09       0.00
1:40              335         27         33         29        100       17.0      -22.0     964.99       0.00
2:00              338         30         36         29        100       16.7      -22.1     964.18       0.00
2:20              337         33         38         29        100       16.7      -21.7     964.11       0.00
2:40              339         30         35         29        100       16.5      -21.5     964.04       0.00
3:00              344         30         36         29        100       16.3      -21.3     963.71       0.00
3:20              338         36         43         29        100       16.3      -21.1     963.06       0.00
3:40              336         37         41         28        100       16.1      -21.1     962.93       0.00
4:00              338         39         43         27        100       15.9      -20.9     962.49       0.00
4:20              335         41         41         27        100       15.8      -21.0     962.52       0.00
4:40              340         38         41         27        100       15.5      -21.1     962.49       0.00
5:00              337         37         39         28        100       15.3      -21.0     962.32       0.00
5:20              338         31         36         28        100       15.5      -21.1     962.69       0.00
5:40              339         32         38         28        100       15.3      -21.2     962.69       0.00
6:00              337         28         32         29        100       15.3      -21.2     962.69       0.00
6:20              332         34         39         29        100       15.3      -21.1     962.86       0.00
6:40              339         30         34         29        100       15.3      -21.2     962.93       0.00
7:00              331         30         36         29        100       15.3      -21.2     962.59       0.00
7:20              335         30         35         29        100       15.2      -21.1     962.62       0.00
7:40              332         31         35         29        100       15.2      -21.2     962.86       0.00
8:00              342         23         29         29        100       15.3      -21.2     962.96       0.00
8:20              332         25         34         30        100       15.4      -21.2     963.10       0.00
8:40              337         28         31         21        100       15.7      -21.1     963.37       0.00
9:00              337         24         31         23        100       15.7      -20.8     963.60       0.00
9:20              342         22         27         27        100       15.8      -20.8     963.47       0.00
9:40              319         17         29         29        100       16.1      -20.9     963.87       0.00
10:00             337         21         26         30        100       16.1      -20.9     963.71       0.00
10:20             341         27         27         30        100       16.2      -20.6     963.81       0.00
10:40             334         22         26         22        100       16.6      -20.7     963.87       0.00
11:00             335         26         26         23        100       16.8      -20.7     964.08       0.00
11:20             316         19         22         28        100       17.1      -20.7     964.35       0.00
11:40             340         20         30         30        100       17.3      -20.7     964.18       0.00
12:00             339         25         28         30        100       17.4      -20.6     964.28       0.00
12:20             323         21         23         30        100       17.5      -20.5     964.86       0.00
12:40             322         19         29         24        100       17.9      -20.4     964.48       0.00
13:00             330         22         27         22        100       17.8      -20.3     964.72       0.00
13:20             328         22         27         27        100       17.3      -20.3     965.03       0.00
13:40             329         23         32         29        100       17.4      -20.3     965.09       0.00
14:00             325         16         23         30        100       17.6      -20.3     965.33       0.00
14:20             331         21         24         31        100       17.7      -20.5     965.13       0.00
14:40             336         23         26         29        100       17.9      -20.3     965.16       0.00
15:00             340         20         22         21        100       17.9      -20.3     965.20       0.00
15:20             330         20         24         26        100       17.5      -20.2     965.23       0.00
15:40             334         27         27         28        100       17.3      -20.2     964.82       0.00
16:00             333         21         25         29        100       17.3      -20.1     965.13       0.00
16:20             328         22         25         31        100       17.4      -20.2     965.47       0.00
16:40             331         18         21         30        100       17.7      -20.2     965.60       0.00
17:00             318         23         23         22        100       18.1      -20.1     965.40       0.00
17:20             325         16         22         25        100       17.8      -20.1     965.43       0.00
17:40             338         22         25         29        100       17.4      -19.9     965.40       0.00
18:00             336         23         24         30        100       17.4      -19.8     965.70       0.00
18:20             342         18         23         31        100       17.7      -19.7     965.74       0.00
18:40             336         25         28         31        100       17.9      -19.6     965.60       0.00
19:00             328         23         29         30        100       17.6      -19.3     965.60       0.00
19:20             334         24         26         31        100       17.3      -19.3     965.74       0.00
19:40             348         23         23         25        100       17.6      -19.3     965.77       0.00
20:00             334         20         24         22        100       17.9      -19.2     965.91       0.00
20:20             333         18         23         27        100       17.6      -19.1     966.21       0.00
20:40             318         20         20         30        100       17.5      -19.0     966.28       0.00
21:00             326         17         23         26        100       17.9      -18.8     966.35       0.00
21:20             332         17         20         21        100       18.1      -18.8     966.48       0.00
21:40             322         17         19         27        100       17.8      -18.8     966.72       0.00
22:00             339         15         19         31        100       17.6      -18.8     966.48       0.00
22:20             334         14         14         25        100       17.8      -18.9     966.72       0.00
22:40             330         11         17         23        100       17.9      -18.9     966.89       0.00
23:00             336         17         20         21        100       18.0      -19.1     966.82       0.00
23:20             336         15         17         28        100       17.8      -18.8     966.96       0.00
23:40             332         17         17         31        100       17.6      -19.0     966.85       0.00